createdAt,value
2022-11-24T00:00:45.302Z,8.95
2022-11-24T00:03:56.606Z,14.23
2022-11-24T00:07:00.275Z,12.40
2022-11-24T00:10:04.713Z,18.55
2022-11-24T00:13:07.710Z,10.83
2022-11-24T00:16:19.894Z,12.98
2022-11-24T00:19:23.804Z,10.77
2022-11-24T00:22:26.856Z,10.75
2022-11-24T00:25:29.895Z,12.38
2022-11-24T00:28:34.584Z,18.50
2022-11-24T00:31:41.210Z,15.10
2022-11-24T00:34:45.089Z,8.88
2022-11-24T00:37:48.073Z,11.90
2022-11-24T00:40:52.836Z,13.23
2022-11-24T00:43:56.650Z,13.23
2022-11-24T00:47:00.115Z,12.48
2022-11-24T00:50:05.009Z,12.18
2022-11-24T00:53:08.089Z,11.65
2022-11-24T00:56:11.814Z,12.33
2022-11-24T00:59:15.858Z,11.93
2022-11-24T01:02:18.906Z,8.68
2022-11-24T01:05:22.787Z,13.20
2022-11-24T01:08:26.369Z,6.90
2022-11-24T01:11:53.139Z,8.73
2022-11-24T01:14:57.038Z,9.80
2022-11-24T01:18:01.178Z,17.17
2022-11-24T01:21:09.859Z,9.38
2022-11-24T01:24:15.119Z,10.82
2022-11-24T01:27:18.826Z,13.53
2022-11-24T01:30:24.115Z,14.18
2022-11-24T01:33:27.520Z,13.73
2022-11-24T01:36:31.683Z,9.05
2022-11-24T01:39:35.319Z,9.27
2022-11-24T01:42:52.041Z,10.27
2022-11-24T01:45:56.558Z,10.20
2022-11-24T01:49:09.876Z,11.32
2022-11-24T01:52:20.782Z,11.55
2022-11-24T01:55:31.995Z,16.08
2022-11-24T01:58:37.159Z,12.37
2022-11-24T02:01:41.354Z,16.92
2022-11-24T02:04:46.367Z,9.35
2022-11-24T02:07:51.416Z,14.93
2022-11-24T02:10:55.871Z,12.80
2022-11-24T02:14:00.122Z,13.33
2022-11-24T02:17:03.902Z,16.10
2022-11-24T02:20:10.831Z,10.95
2022-11-24T02:23:25.358Z,13.57
2022-11-24T02:26:46.048Z,16.05
2022-11-24T02:29:50.666Z,9.90
2022-11-24T02:32:55.336Z,16.40
2022-11-24T02:35:59.248Z,10.68
2022-11-24T02:39:03.276Z,7.43
2022-11-24T02:42:13.662Z,10.02
2022-11-24T02:45:17.762Z,11.57
2022-11-24T02:48:21.467Z,10.77
2022-11-24T02:51:25.589Z,7.97
2022-11-24T02:54:29.587Z,11.45
2022-11-24T02:57:35.894Z,11.20
2022-11-24T03:00:39.652Z,13.10
2022-11-24T03:03:43.065Z,10.63
2022-11-24T03:06:46.068Z,9.98
2022-11-24T03:09:50.206Z,10.30
2022-11-24T03:12:54.918Z,20.60
2022-11-24T03:15:59.357Z,9.43
2022-11-24T03:19:03.085Z,12.52
2022-11-24T03:22:07.176Z,11.93
2022-11-24T03:25:10.654Z,10.70
2022-11-24T03:28:13.980Z,12.55
2022-11-24T03:31:18.294Z,15.07
2022-11-24T03:34:22.440Z,10.43
2022-11-24T03:37:25.490Z,21.85
2022-11-24T03:40:28.759Z,26.90
2022-11-24T03:43:32.650Z,28.00
2022-11-24T03:46:36.442Z,37.90
2022-11-24T03:49:41.960Z,36.67
2022-11-24T03:52:46.004Z,27.15
2022-11-24T03:55:49.670Z,23.00
2022-11-24T03:58:53.737Z,26.35
2022-11-24T04:01:57.537Z,29.83
2022-11-24T04:05:01.584Z,23.27
2022-11-24T04:08:06.049Z,21.30
2022-11-24T04:11:30.018Z,41.30
2022-11-24T04:14:34.067Z,36.83
2022-11-24T04:17:38.531Z,28.53
2022-11-24T04:20:43.487Z,29.50
2022-11-24T04:23:46.999Z,43.97
2022-11-24T04:26:50.640Z,61.67
2022-11-24T04:29:54.499Z,37.50
2022-11-24T04:32:58.187Z,33.10
2022-11-24T04:36:01.905Z,32.97
2022-11-24T04:39:25.874Z,24.38
2022-11-24T04:42:29.148Z,33.30
2022-11-24T04:45:32.934Z,29.63
2022-11-24T04:48:37.039Z,35.57
2022-11-24T04:51:41.034Z,22.60
2022-11-24T04:54:44.694Z,30.50
2022-11-24T04:57:48.432Z,29.85
2022-11-24T05:00:52.476Z,31.08
2022-11-24T05:03:57.531Z,24.23
2022-11-24T05:07:01.564Z,29.65
2022-11-24T05:10:23.477Z,25.55
2022-11-24T05:13:27.866Z,25.67
2022-11-24T05:16:31.014Z,26.40
2022-11-24T05:19:34.386Z,26.03
2022-11-24T05:22:37.848Z,25.08
2022-11-24T05:25:47.254Z,22.75
2022-11-24T05:28:51.012Z,22.83
2022-11-24T05:31:54.936Z,24.92
2022-11-24T05:34:58.867Z,27.20
2022-11-24T05:38:03.002Z,24.63
2022-11-24T05:41:07.632Z,29.25
2022-11-24T05:44:11.305Z,28.70
2022-11-24T05:47:14.786Z,18.42
2022-11-24T05:50:20.230Z,27.97
2022-11-24T05:53:24.377Z,26.42
2022-11-24T05:56:28.072Z,28.52
2022-11-24T05:59:32.812Z,21.33
2022-11-24T06:02:37.021Z,20.98
2022-11-24T06:05:40.855Z,24.77
2022-11-24T06:08:44.887Z,24.07
2022-11-24T06:11:49.379Z,36.80
2022-11-24T06:14:53.779Z,32.28
2022-11-24T06:17:57.508Z,30.15
2022-11-24T06:21:12.046Z,27.13
2022-11-24T06:24:16.142Z,31.98
2022-11-24T06:27:20.048Z,28.55
2022-11-24T06:30:23.884Z,24.02
2022-11-24T06:33:27.374Z,25.90
2022-11-24T06:36:31.021Z,27.70
2022-11-24T06:39:34.679Z,28.42
2022-11-24T06:42:38.792Z,36.33
2022-11-24T06:45:42.782Z,29.60
2022-11-24T06:48:46.514Z,27.10
2022-11-24T06:51:50.170Z,27.60
2022-11-24T06:54:54.280Z,30.63
2022-11-24T06:57:58.139Z,28.75
2022-11-24T07:01:01.789Z,27.27
2022-11-24T07:04:05.701Z,30.10
2022-11-24T07:07:09.458Z,24.43
2022-11-24T07:10:13.697Z,32.30
2022-11-24T07:13:17.318Z,27.40
2022-11-24T07:16:26.154Z,31.70
2022-11-24T07:19:29.501Z,34.47
2022-11-24T07:22:32.475Z,35.47
2022-11-24T07:25:35.772Z,32.88
2022-11-24T07:28:39.015Z,38.67
2022-11-24T07:31:43.183Z,44.28
2022-11-24T07:34:46.570Z,39.30
2022-11-24T07:37:49.509Z,54.30
2022-11-24T07:40:53.444Z,45.90
2022-11-24T07:43:57.104Z,35.53
2022-11-24T07:47:01.048Z,48.67
2022-11-24T07:50:04.750Z,46.17
2022-11-24T07:53:08.293Z,49.20
2022-11-24T07:56:13.126Z,47.83
2022-11-24T07:59:16.445Z,49.45
2022-11-24T08:02:20.106Z,41.35
2022-11-24T08:05:23.973Z,46.38
2022-11-24T08:08:27.562Z,38.17
2022-11-24T08:11:32.396Z,42.50
2022-11-24T08:14:36.247Z,33.28
2022-11-24T08:17:40.413Z,42.47
2022-11-24T08:20:43.929Z,52.20
2022-11-24T08:23:48.058Z,40.43
2022-11-24T08:26:51.389Z,39.65
2022-11-24T08:29:55.337Z,27.58
2022-11-24T08:33:01.930Z,30.00
2022-11-24T08:36:13.926Z,33.97
2022-11-24T08:39:16.899Z,40.90
2022-11-24T08:42:20.422Z,42.00
2022-11-24T08:45:25.621Z,41.90
2022-11-24T08:48:29.572Z,31.08
2022-11-24T08:51:32.533Z,33.47
2022-11-24T08:54:36.030Z,36.03
2022-11-24T08:57:39.195Z,40.60
2022-11-24T09:00:42.746Z,37.30
2022-11-24T09:03:50.749Z,38.03
2022-11-24T09:06:55.229Z,47.30
2022-11-24T09:09:58.852Z,40.03
2022-11-24T09:13:03.200Z,39.47
2022-11-24T09:16:13.088Z,34.90
2022-11-24T09:19:17.087Z,38.75
2022-11-24T09:22:20.715Z,41.10
2022-11-24T09:25:26.892Z,38.33
2022-11-24T09:28:30.104Z,43.08
2022-11-24T09:31:36.255Z,49.00
2022-11-24T09:34:39.812Z,44.75
2022-11-24T09:37:45.680Z,45.58
2022-11-24T09:40:50.390Z,48.13
2022-11-24T09:44:06.833Z,54.15
2022-11-24T09:47:22.410Z,63.50
2022-11-24T09:50:44.788Z,52.45
2022-11-24T09:53:55.705Z,49.00
2022-11-24T09:57:02.477Z,59.33
2022-11-24T10:00:14.156Z,65.82
2022-11-24T10:03:24.989Z,49.17
2022-11-24T10:06:32.026Z,60.65
2022-11-24T10:10:29.457Z,59.05
2022-11-24T10:13:35.641Z,55.50
2022-11-24T10:16:54.723Z,51.72
2022-11-24T10:20:06.408Z,51.10
2022-11-24T10:23:28.483Z,56.55
2022-11-24T10:26:43.653Z,62.90
2022-11-24T10:29:52.550Z,56.73
2022-11-24T10:33:08.949Z,54.88
2022-11-24T10:36:21.279Z,64.10
2022-11-24T10:39:37.762Z,69.03
2022-11-24T10:42:40.940Z,70.20
2022-11-24T10:46:27.774Z,83.53
2022-11-24T10:49:34.297Z,68.13
2022-11-24T10:52:48.826Z,71.90
2022-11-24T10:55:58.670Z,58.50
2022-11-24T10:59:39.001Z,77.15
2022-11-24T11:02:42.967Z,75.27
2022-11-24T11:06:13.511Z,79.13
2022-11-24T11:09:20.167Z,74.55
2022-11-24T11:12:43.396Z,74.57
2022-11-24T11:15:47.294Z,91.57
2022-11-24T11:18:51.880Z,74.50
2022-11-24T11:22:13.706Z,89.15
2022-11-24T11:25:22.042Z,91.82
2022-11-24T11:28:29.887Z,98.63
2022-11-24T11:31:35.688Z,84.13
2022-11-24T11:34:41.290Z,77.43
2022-11-24T11:37:47.315Z,91.53
2022-11-24T11:40:53.311Z,98.70
2022-11-24T11:44:28.302Z,96.90
2022-11-24T11:48:05.785Z,105.15
2022-11-24T11:51:23.743Z,115.10
2022-11-24T11:54:46.553Z,114.32
2022-11-24T11:58:02.709Z,96.10
2022-11-24T12:01:43.867Z,114.18
2022-11-24T12:04:53.419Z,95.72
2022-11-24T12:08:22.973Z,91.38
2022-11-24T12:11:39.019Z,91.78
2022-11-24T12:15:04.581Z,80.10
2022-11-24T12:22:07.920Z,70.53
2022-11-24T12:25:22.076Z,72.10
2022-11-24T12:29:08.260Z,71.95
2022-11-24T12:33:08.887Z,71.20
2022-11-24T12:36:46.937Z,63.83
2022-11-24T12:40:16.865Z,54.23
2022-11-24T12:43:31.202Z,40.65
2022-11-24T12:46:57.360Z,26.63
2022-11-24T12:50:12.525Z,27.90
2022-11-24T12:53:19.676Z,17.75
2022-11-24T12:56:58.526Z,19.87
2022-11-24T13:00:09.076Z,16.85
2022-11-24T13:03:14.927Z,12.73
2022-11-24T13:06:49.846Z,10.85
2022-11-24T13:10:54.158Z,14.35
2022-11-24T13:14:16.129Z,7.32
2022-11-24T13:17:50.237Z,10.40
2022-11-24T13:20:59.627Z,13.80
2022-11-24T13:24:06.758Z,15.07
2022-11-24T13:27:16.758Z,31.67
2022-11-24T13:30:35.423Z,97.90
2022-11-24T13:33:39.995Z,94.57
2022-11-24T13:36:54.228Z,93.10
2022-11-24T13:40:05.826Z,77.80
2022-11-24T13:43:11.690Z,87.70
2022-11-24T13:46:14.686Z,93.87
2022-11-24T13:49:21.557Z,66.07
2022-11-24T13:52:51.524Z,78.70
2022-11-24T13:56:12.737Z,79.93
2022-11-24T13:59:30.305Z,68.77
2022-11-24T14:02:35.455Z,78.40
2022-11-24T14:05:40.744Z,86.63
2022-11-24T14:08:46.560Z,117.88
2022-11-24T14:12:20.803Z,106.13
2022-11-24T14:15:35.048Z,75.50
2022-11-24T14:18:40.323Z,76.63
2022-11-24T14:21:45.985Z,66.40
2022-11-24T14:24:57.924Z,106.68
2022-11-24T14:28:02.369Z,78.67
2022-11-24T14:31:17.303Z,77.07
2022-11-24T14:34:22.941Z,71.28
2022-11-24T14:37:26.707Z,79.82
2022-11-24T14:40:50.414Z,88.13
2022-11-24T14:44:14.513Z,80.05
2022-11-24T14:47:34.811Z,78.13
2022-11-24T14:50:38.566Z,92.50
2022-11-24T14:53:44.733Z,95.72
2022-11-24T14:57:05.887Z,89.00
2022-11-24T15:00:22.524Z,91.22
2022-11-24T15:03:25.465Z,90.97
2022-11-24T15:06:29.405Z,102.30
2022-11-24T15:09:40.182Z,93.70
2022-11-24T15:12:58.576Z,95.28
2022-11-24T15:16:09.677Z,85.78
2022-11-24T15:19:16.575Z,102.60
2022-11-24T15:22:38.003Z,88.80
2022-11-24T15:25:41.667Z,90.32
2022-11-24T15:28:47.531Z,99.07
2022-11-24T15:31:53.020Z,98.28
2022-11-24T15:34:57.207Z,95.13
2022-11-24T15:38:00.268Z,92.93
2022-11-24T15:41:03.672Z,94.95
2022-11-24T15:44:08.504Z,96.90
2022-11-24T15:47:12.089Z,103.47
2022-11-24T15:50:16.519Z,106.88
2022-11-24T15:53:24.793Z,102.22
2022-11-24T15:56:34.590Z,101.25
2022-11-24T15:59:39.626Z,119.50
2022-11-24T16:02:43.418Z,87.78
2022-11-24T16:05:56.398Z,88.15
2022-11-24T16:08:59.662Z,100.85
2022-11-24T16:12:04.655Z,93.80
2022-11-24T16:15:08.738Z,85.95
2022-11-24T16:18:14.398Z,94.20
2022-11-24T16:21:18.474Z,110.15
2022-11-24T16:24:22.524Z,109.07
2022-11-24T16:27:26.170Z,102.20
2022-11-24T16:30:29.909Z,77.20
2022-11-24T16:33:33.983Z,67.55
2022-11-24T16:36:37.583Z,72.40
2022-11-24T16:39:46.987Z,71.83
2022-11-24T16:42:53.684Z,85.95
2022-11-24T16:46:18.745Z,70.88
2022-11-24T16:49:22.528Z,81.32
2022-11-24T16:52:26.175Z,76.53
2022-11-24T16:55:29.244Z,65.30
2022-11-24T16:58:32.621Z,74.85
2022-11-24T17:01:36.732Z,67.28
2022-11-24T17:04:40.278Z,62.67
2022-11-24T17:07:43.335Z,64.15
2022-11-24T17:10:46.821Z,58.03
2022-11-24T17:13:50.275Z,59.22
2022-11-24T17:16:53.902Z,68.95
2022-11-24T17:19:57.572Z,60.47
2022-11-24T17:23:01.534Z,55.30
2022-11-24T17:26:07.541Z,40.23
2022-11-24T17:29:11.503Z,45.95
2022-11-24T17:32:15.239Z,57.35
2022-11-24T17:35:18.615Z,49.75
2022-11-24T17:38:22.368Z,55.47
2022-11-24T17:41:26.469Z,52.45
2022-11-24T17:44:30.122Z,46.90
2022-11-24T17:47:34.251Z,50.70
2022-11-24T17:50:37.859Z,44.67
2022-11-24T17:53:43.213Z,30.40
2022-11-24T17:56:48.942Z,30.85
2022-11-24T17:59:54.009Z,33.85
2022-11-24T18:02:58.248Z,32.78
2022-11-24T18:06:09.816Z,30.13
2022-11-24T18:09:13.210Z,25.20
2022-11-24T18:12:16.533Z,30.65
2022-11-24T18:15:20.190Z,26.60
2022-11-24T18:18:23.586Z,30.75
2022-11-24T18:21:27.200Z,32.22
2022-11-24T18:24:31.205Z,34.75
2022-11-24T18:27:34.963Z,59.63
2022-11-24T18:30:38.795Z,57.30
2022-11-24T18:33:44.062Z,62.97
2022-11-24T18:36:53.140Z,51.05
2022-11-24T18:39:56.497Z,64.57
2022-11-24T18:43:00.512Z,52.47
2022-11-24T18:46:22.340Z,55.43
2022-11-24T18:49:26.230Z,50.45
2022-11-24T18:52:29.490Z,40.00
2022-11-24T18:55:34.054Z,48.70
2022-11-24T18:58:37.736Z,52.42
2022-11-24T19:01:41.103Z,37.88
2022-11-24T19:04:45.029Z,38.10
2022-11-24T19:07:48.415Z,33.42
2022-11-24T19:10:52.634Z,32.72
2022-11-24T19:13:56.996Z,29.20
2022-11-24T19:17:03.011Z,37.67
2022-11-24T19:20:06.724Z,35.45
2022-11-24T19:23:10.066Z,28.98
2022-11-24T19:26:13.696Z,23.83
2022-11-24T19:29:17.306Z,22.73
2022-11-24T19:32:21.050Z,22.00
2022-11-24T19:35:24.628Z,14.32
2022-11-24T19:38:30.081Z,12.63
2022-11-24T19:41:34.054Z,9.15
2022-11-24T19:44:37.703Z,10.63
2022-11-24T19:47:41.040Z,8.93
2022-11-24T19:50:44.050Z,7.40
2022-11-24T19:53:48.066Z,8.98
2022-11-24T19:56:50.928Z,8.30
2022-11-24T19:59:54.908Z,8.38
2022-11-24T20:02:59.364Z,15.85
2022-11-24T20:06:02.950Z,9.27
2022-11-24T20:09:09.006Z,8.50
2022-11-24T20:12:11.953Z,9.65
2022-11-24T20:15:15.361Z,9.45
2022-11-24T20:18:18.963Z,9.90
2022-11-24T20:21:33.759Z,10.02
2022-11-24T20:24:37.569Z,8.80
2022-11-24T20:27:41.696Z,13.13
2022-11-24T20:30:44.620Z,8.07
2022-11-24T20:33:48.582Z,7.95
2022-11-24T20:36:53.406Z,5.07
2022-11-24T20:39:58.858Z,7.45
2022-11-24T20:43:01.776Z,10.32
2022-11-24T20:46:10.931Z,7.15
2022-11-24T20:49:20.305Z,7.10
2022-11-24T20:52:23.256Z,9.20
2022-11-24T20:55:26.308Z,7.35
2022-11-24T20:58:29.734Z,8.93
2022-11-24T21:01:44.227Z,7.93
2022-11-24T21:04:47.758Z,9.87
2022-11-24T21:07:50.729Z,5.53
2022-11-24T21:10:55.569Z,11.40
2022-11-24T21:13:59.796Z,11.05
2022-11-24T21:17:03.810Z,10.77
2022-11-24T21:20:08.468Z,11.63
2022-11-24T21:23:13.001Z,9.45
2022-11-24T21:26:17.938Z,20.88
2022-11-24T21:29:23.930Z,8.48
2022-11-24T21:32:28.730Z,14.18
2022-11-24T21:35:35.895Z,12.77
2022-11-24T21:38:40.221Z,13.60
2022-11-24T21:41:43.710Z,10.93
2022-11-24T21:44:47.645Z,11.93
2022-11-24T21:47:51.207Z,13.18
2022-11-24T21:50:54.783Z,14.90
2022-11-24T21:53:57.854Z,26.92
2022-11-24T21:57:02.231Z,21.45
2022-11-24T22:00:07.431Z,21.30
2022-11-24T22:03:11.133Z,14.05
2022-11-24T22:06:14.815Z,16.83
2022-11-24T22:09:18.777Z,15.60
2022-11-24T22:12:22.413Z,12.82
2022-11-24T22:15:26.434Z,19.10
2022-11-24T22:18:32.849Z,16.02
2022-11-24T22:21:36.581Z,16.02
2022-11-24T22:24:40.429Z,17.25
2022-11-24T22:27:44.680Z,19.35
2022-11-24T22:30:48.439Z,20.20
2022-11-24T22:33:53.134Z,17.80
2022-11-24T22:36:56.873Z,13.63
2022-11-24T22:40:00.930Z,8.55
2022-11-24T22:43:04.645Z,12.23
2022-11-24T22:46:14.432Z,15.68
2022-11-24T22:49:17.730Z,10.63
2022-11-24T22:52:21.584Z,9.93
2022-11-24T22:55:25.133Z,10.30
2022-11-24T22:58:28.754Z,14.33
2022-11-24T23:01:34.167Z,15.63
2022-11-24T23:04:38.300Z,15.10
2022-11-24T23:07:41.865Z,13.32
2022-11-24T23:10:45.932Z,17.70
2022-11-24T23:13:53.936Z,22.70
2022-11-24T23:16:58.093Z,14.95
2022-11-24T23:20:01.719Z,13.80
2022-11-24T23:23:05.703Z,11.80
2022-11-24T23:26:17.460Z,10.70
2022-11-24T23:29:21.503Z,21.80
2022-11-24T23:32:25.186Z,15.40
2022-11-24T23:35:29.138Z,10.77
2022-11-24T23:38:34.997Z,10.88
2022-11-24T23:41:38.993Z,10.67
2022-11-24T23:44:42.760Z,7.97
2022-11-24T23:47:46.457Z,8.75
2022-11-24T23:50:50.158Z,8.90
2022-11-24T23:53:54.751Z,8.25
2022-11-24T23:56:58.500Z,6.87
